Terminal Aerodrome Forecast
Issued by NWS

Home | Current Version | Previous Version | Text Only | Print | Product List | Glossary On
Versions: 1 2 3 4 5 6 7 8 9 10 11 12 13 14 15 16 17
774
FTUS41 KGYX 091120
TAFAUG
TAF
KAUG 091120Z 0912/1012 36009KT 3SM -SN BR OVC035
     FM091400 36007KT P6SM -SHSN OVC025=

USA.gov is the U.S. government's official web portal to all federal, state and local government web resources and services.